sensor_id;sensor_type;location;lat;lon;timestamp;pressure;altitude;pressure_sealevel;temperature;humidity
15880;BME280;61999;51.514;14.614;2023-04-19T00:00:06;100847.63;;;3.44;61.87
15880;BME280;61999;51.514;14.614;2023-04-19T00:02:35;100846.78;;;3.44;62.00
15880;BME280;61999;51.514;14.614;2023-04-19T00:05:03;100839.94;;;3.87;60.60
15880;BME280;61999;51.514;14.614;2023-04-19T00:07:32;100836.31;;;3.91;60.17
15880;BME280;61999;51.514;14.614;2023-04-19T00:10:00;100843.72;;;3.33;62.11
15880;BME280;61999;51.514;14.614;2023-04-19T00:12:28;100837.13;;;3.69;61.04
15880;BME280;61999;51.514;14.614;2023-04-19T00:14:56;100836.13;;;3.50;61.83
15880;BME280;61999;51.514;14.614;2023-04-19T00:17:25;100831.34;;;3.61;60.98
15880;BME280;61999;51.514;14.614;2023-04-19T00:19:53;100828.59;;;3.66;61.30
15880;BME280;61999;51.514;14.614;2023-04-19T00:22:22;100823.13;;;3.25;62.39
15880;BME280;61999;51.514;14.614;2023-04-19T00:24:50;100828.59;;;3.17;62.51
15880;BME280;61999;51.514;14.614;2023-04-19T00:27:18;100821.31;;;3.02;63.42
15880;BME280;61999;51.514;14.614;2023-04-19T00:29:46;100820.88;;;2.91;64.02
15880;BME280;61999;51.514;14.614;2023-04-19T00:32:14;100810.81;;;3.05;63.53
15880;BME280;61999;51.514;14.614;2023-04-19T00:34:44;100807.75;;;3.42;61.95
15880;BME280;61999;51.514;14.614;2023-04-19T00:37:12;100799.31;;;3.59;61.13
15880;BME280;61999;51.514;14.614;2023-04-19T00:39:40;100810.19;;;3.22;62.74
15880;BME280;61999;51.514;14.614;2023-04-19T00:42:08;100813.09;;;3.14;63.13
15880;BME280;61999;51.514;14.614;2023-04-19T00:44:36;100805.28;;;3.14;62.85
15880;BME280;61999;51.514;14.614;2023-04-19T00:47:04;100800.09;;;3.13;63.49
15880;BME280;61999;51.514;14.614;2023-04-19T00:49:32;100800.56;;;2.75;65.34
15880;BME280;61999;51.514;14.614;2023-04-19T00:52:02;100793.59;;;3.01;64.11
15880;BME280;61999;51.514;14.614;2023-04-19T00:54:32;100799.72;;;3.00;63.90
15880;BME280;61999;51.514;14.614;2023-04-19T00:57:00;100793.66;;;2.74;64.87
15880;BME280;61999;51.514;14.614;2023-04-19T00:59:29;100790.03;;;3.03;63.91
15880;BME280;61999;51.514;14.614;2023-04-19T01:01:57;100791.81;;;3.01;64.12
15880;BME280;61999;51.514;14.614;2023-04-19T01:04:26;100787.78;;;2.93;64.53
15880;BME280;61999;51.514;14.614;2023-04-19T01:06:54;100794.78;;;3.16;63.49
15880;BME280;61999;51.514;14.614;2023-04-19T01:09:24;100787.03;;;3.14;63.40
15880;BME280;61999;51.514;14.614;2023-04-19T01:11:52;100792.38;;;3.11;63.16
15880;BME280;61999;51.514;14.614;2023-04-19T01:14:20;100786.94;;;3.17;63.04
15880;BME280;61999;51.514;14.614;2023-04-19T01:16:48;100781.22;;;2.82;64.46
15880;BME280;61999;51.514;14.614;2023-04-19T01:19:16;100779.50;;;2.81;64.64
15880;BME280;61999;51.514;14.614;2023-04-19T01:21:44;100786.72;;;2.98;64.19
15880;BME280;61999;51.514;14.614;2023-04-19T01:24:14;100782.25;;;3.02;64.28
15880;BME280;61999;51.514;14.614;2023-04-19T01:26:42;100781.03;;;2.87;65.06
15880;BME280;61999;51.514;14.614;2023-04-19T01:29:10;100778.72;;;2.79;65.15
15880;BME280;61999;51.514;14.614;2023-04-19T01:31:38;100777.81;;;3.05;64.26
15880;BME280;61999;51.514;14.614;2023-04-19T01:34:05;100779.72;;;2.75;65.25
15880;BME280;61999;51.514;14.614;2023-04-19T01:36:33;100774.53;;;2.75;65.55
15880;BME280;61999;51.514;14.614;2023-04-19T01:39:01;100772.63;;;2.80;65.20
15880;BME280;61999;51.514;14.614;2023-04-19T01:41:31;100781.22;;;2.57;65.34
15880;BME280;61999;51.514;14.614;2023-04-19T01:43:59;100770.50;;;2.67;65.92
15880;BME280;61999;51.514;14.614;2023-04-19T01:46:27;100760.63;;;2.76;65.21
15880;BME280;61999;51.514;14.614;2023-04-19T01:48:55;100755.19;;;2.82;65.12
15880;BME280;61999;51.514;14.614;2023-04-19T01:51:23;100765.03;;;2.74;65.41
15880;BME280;61999;51.514;14.614;2023-04-19T01:53:51;100754.84;;;2.92;65.08
15880;BME280;61999;51.514;14.614;2023-04-19T01:56:20;100759.66;;;2.54;66.05
15880;BME280;61999;51.514;14.614;2023-04-19T01:58:49;100756.25;;;2.52;66.60
15880;BME280;61999;51.514;14.614;2023-04-19T02:01:17;100753.50;;;2.56;66.28
15880;BME280;61999;51.514;14.614;2023-04-19T02:03:45;100751.41;;;2.66;66.48
15880;BME280;61999;51.514;14.614;2023-04-19T02:06:13;100754.75;;;2.95;64.78
15880;BME280;61999;51.514;14.614;2023-04-19T02:08:41;100742.44;;;2.50;65.89
15880;BME280;61999;51.514;14.614;2023-04-19T02:11:12;100744.81;;;2.04;67.62
15880;BME280;61999;51.514;14.614;2023-04-19T02:13:41;100748.53;;;1.69;70.13
15880;BME280;61999;51.514;14.614;2023-04-19T02:16:11;100745.44;;;2.12;68.54
15880;BME280;61999;51.514;14.614;2023-04-19T02:18:39;100756.09;;;2.05;68.43
15880;BME280;61999;51.514;14.614;2023-04-19T02:21:09;100746.66;;;2.54;66.17
15880;BME280;61999;51.514;14.614;2023-04-19T02:23:37;100744.03;;;2.29;66.21
15880;BME280;61999;51.514;14.614;2023-04-19T02:26:05;100741.84;;;2.42;65.24
15880;BME280;61999;51.514;14.614;2023-04-19T02:28:33;100742.19;;;2.06;66.37
15880;BME280;61999;51.514;14.614;2023-04-19T02:31:04;100739.88;;;2.73;64.28
15880;BME280;61999;51.514;14.614;2023-04-19T02:33:34;100731.44;;;2.67;63.40
15880;BME280;61999;51.514;14.614;2023-04-19T02:36:03;100737.31;;;2.22;64.79
15880;BME280;61999;51.514;14.614;2023-04-19T02:38:31;100735.53;;;2.49;64.12
15880;BME280;61999;51.514;14.614;2023-04-19T02:40:59;100729.50;;;1.97;64.24
15880;BME280;61999;51.514;14.614;2023-04-19T02:43:29;100724.69;;;2.11;64.57
15880;BME280;61999;51.514;14.614;2023-04-19T02:45:57;100718.13;;;2.26;63.51
15880;BME280;61999;51.514;14.614;2023-04-19T02:48:25;100714.88;;;1.92;64.05
15880;BME280;61999;51.514;14.614;2023-04-19T02:50:55;100714.00;;;2.45;62.95
15880;BME280;61999;51.514;14.614;2023-04-19T02:53:23;100713.44;;;2.60;61.79
15880;BME280;61999;51.514;14.614;2023-04-19T02:55:51;100716.50;;;1.97;62.22
15880;BME280;61999;51.514;14.614;2023-04-19T02:58:19;100705.13;;;2.51;61.06
15880;BME280;61999;51.514;14.614;2023-04-19T03:00:47;100703.41;;;1.43;62.12
15880;BME280;61999;51.514;14.614;2023-04-19T03:03:14;100707.28;;;1.00;64.26
15880;BME280;61999;51.514;14.614;2023-04-19T03:05:42;100710.16;;;1.49;62.63
15880;BME280;61999;51.514;14.614;2023-04-19T03:08:12;100707.63;;;1.47;61.90
15880;BME280;61999;51.514;14.614;2023-04-19T03:10:40;100700.38;;;1.57;61.42
15880;BME280;61999;51.514;14.614;2023-04-19T03:13:08;100713.81;;;1.14;62.10
15880;BME280;61999;51.514;14.614;2023-04-19T03:15:36;100711.00;;;1.49;61.69
15880;BME280;61999;51.514;14.614;2023-04-19T03:18:04;100706.75;;;1.19;61.22
15880;BME280;61999;51.514;14.614;2023-04-19T03:20:32;100707.91;;;0.79;61.77
15880;BME280;61999;51.514;14.614;2023-04-19T03:23:00;100702.00;;;1.03;61.44
15880;BME280;61999;51.514;14.614;2023-04-19T03:25:29;100700.22;;;0.76;60.89
15880;BME280;61999;51.514;14.614;2023-04-19T03:27:57;100696.19;;;1.25;59.59
15880;BME280;61999;51.514;14.614;2023-04-19T03:30:25;100703.28;;;1.18;59.89
15880;BME280;61999;51.514;14.614;2023-04-19T03:32:53;100696.75;;;1.63;58.38
15880;BME280;61999;51.514;14.614;2023-04-19T03:35:21;100699.84;;;1.18;58.12
15880;BME280;61999;51.514;14.614;2023-04-19T03:37:51;100694.09;;;1.08;57.88
15880;BME280;61999;51.514;14.614;2023-04-19T03:40:20;100695.13;;;1.59;56.81
15880;BME280;61999;51.514;14.614;2023-04-19T03:42:49;100679.16;;;1.15;55.66
15880;BME280;61999;51.514;14.614;2023-04-19T03:45:17;100684.84;;;1.27;56.38
15880;BME280;61999;51.514;14.614;2023-04-19T03:47:45;100683.38;;;0.89;55.87
15880;BME280;61999;51.514;14.614;2023-04-19T03:50:13;100683.72;;;0.77;56.39
15880;BME280;61999;51.514;14.614;2023-04-19T03:52:41;100685.50;;;0.75;55.40
15880;BME280;61999;51.514;14.614;2023-04-19T03:55:10;100684.84;;;0.35;55.27
15880;BME280;61999;51.514;14.614;2023-04-19T03:57:38;100694.94;;;0.79;55.25
15880;BME280;61999;51.514;14.614;2023-04-19T04:00:08;100698.72;;;0.34;54.55
15880;BME280;61999;51.514;14.614;2023-04-19T04:02:37;100704.59;;;-0.29;55.62
15880;BME280;61999;51.514;14.614;2023-04-19T04:05:06;100703.81;;;0.39;54.33
15880;BME280;61999;51.514;14.614;2023-04-19T04:07:37;100706.06;;;0.51;53.15
15880;BME280;61999;51.514;14.614;2023-04-19T04:10:07;100700.38;;;0.37;53.42
15880;BME280;61999;51.514;14.614;2023-04-19T04:12:35;100697.19;;;0.26;53.83
15880;BME280;61999;51.514;14.614;2023-04-19T04:15:04;100703.44;;;-0.17;54.11
15880;BME280;61999;51.514;14.614;2023-04-19T04:17:33;100703.69;;;-0.26;53.94
15880;BME280;61999;51.514;14.614;2023-04-19T04:20:01;100707.47;;;-0.05;53.91
15880;BME280;61999;51.514;14.614;2023-04-19T04:22:31;100699.53;;;0.01;53.01
15880;BME280;61999;51.514;14.614;2023-04-19T04:24:59;100710.31;;;-0.15;53.76
15880;BME280;61999;51.514;14.614;2023-04-19T04:27:28;100706.06;;;0.15;52.88
15880;BME280;61999;51.514;14.614;2023-04-19T04:29:56;100707.28;;;-0.34;53.12
15880;BME280;61999;51.514;14.614;2023-04-19T04:32:24;100701.94;;;-0.27;52.52
15880;BME280;61999;51.514;14.614;2023-04-19T04:34:54;100703.00;;;-0.73;53.49
15880;BME280;61999;51.514;14.614;2023-04-19T04:37:21;100694.09;;;-0.62;53.82
15880;BME280;61999;51.514;14.614;2023-04-19T04:39:50;100697.13;;;-0.43;53.03
15880;BME280;61999;51.514;14.614;2023-04-19T04:42:18;100703.75;;;-0.30;52.91
15880;BME280;61999;51.514;14.614;2023-04-19T04:44:47;100686.13;;;-0.15;51.93
15880;BME280;61999;51.514;14.614;2023-04-19T04:47:16;100692.00;;;-0.09;51.61
15880;BME280;61999;51.514;14.614;2023-04-19T04:49:44;100700.81;;;-0.53;52.65
15880;BME280;61999;51.514;14.614;2023-04-19T04:52:14;100699.88;;;-0.49;52.70
15880;BME280;61999;51.514;14.614;2023-04-19T04:54:43;100698.41;;;-0.23;52.19
15880;BME280;61999;51.514;14.614;2023-04-19T04:57:10;100691.47;;;-0.59;53.10
15880;BME280;61999;51.514;14.614;2023-04-19T04:59:38;100688.75;;;-0.54;52.06
15880;BME280;61999;51.514;14.614;2023-04-19T05:02:06;100694.06;;;-0.99;52.79
15880;BME280;61999;51.514;14.614;2023-04-19T05:04:34;100682.66;;;-0.90;53.05
15880;BME280;61999;51.514;14.614;2023-04-19T05:07:05;100686.56;;;-0.71;52.75
15880;BME280;61999;51.514;14.614;2023-04-19T05:09:34;100690.19;;;-0.41;51.86
15880;BME280;61999;51.514;14.614;2023-04-19T05:12:03;100685.50;;;-0.62;51.36
15880;BME280;61999;51.514;14.614;2023-04-19T05:14:31;100682.56;;;-0.86;52.67
15880;BME280;61999;51.514;14.614;2023-04-19T05:16:59;100685.56;;;-1.04;52.51
15880;BME280;61999;51.514;14.614;2023-04-19T05:19:27;100694.44;;;-1.17;52.94
15880;BME280;61999;51.514;14.614;2023-04-19T05:21:55;100686.91;;;-0.88;52.36
15880;BME280;61999;51.514;14.614;2023-04-19T05:24:23;100684.78;;;-1.09;52.60
15880;BME280;61999;51.514;14.614;2023-04-19T05:26:52;100674.84;;;-1.29;52.92
15880;BME280;61999;51.514;14.614;2023-04-19T05:29:20;100670.97;;;-1.08;53.50
15880;BME280;61999;51.514;14.614;2023-04-19T05:31:48;100673.44;;;-1.44;54.78
15880;BME280;61999;51.514;14.614;2023-04-19T05:34:16;100681.69;;;-1.27;54.63
15880;BME280;61999;51.514;14.614;2023-04-19T05:36:45;100674.22;;;-1.40;54.12
15880;BME280;61999;51.514;14.614;2023-04-19T05:39:13;100675.06;;;-1.40;55.17
15880;BME280;61999;51.514;14.614;2023-04-19T05:41:41;100658.69;;;-1.40;54.66
15880;BME280;61999;51.514;14.614;2023-04-19T05:44:10;100664.13;;;-1.54;55.93
15880;BME280;61999;51.514;14.614;2023-04-19T05:46:38;100660.03;;;-1.68;55.68
15880;BME280;61999;51.514;14.614;2023-04-19T05:49:06;100657.53;;;-1.72;56.09
15880;BME280;61999;51.514;14.614;2023-04-19T05:51:34;100665.72;;;-1.47;55.56
15880;BME280;61999;51.514;14.614;2023-04-19T05:54:02;100672.28;;;-0.89;54.33
15880;BME280;61999;51.514;14.614;2023-04-19T05:56:30;100669.09;;;-0.61;54.43
15880;BME280;61999;51.514;14.614;2023-04-19T05:58:58;100656.56;;;-1.20;54.73
15880;BME280;61999;51.514;14.614;2023-04-19T06:01:28;100665.16;;;-1.20;55.43
15880;BME280;61999;51.514;14.614;2023-04-19T06:03:56;100662.19;;;-1.43;56.01
15880;BME280;61999;51.514;14.614;2023-04-19T06:06:24;100662.78;;;-0.88;57.93
15880;BME280;61999;51.514;14.614;2023-04-19T06:08:53;100658.19;;;-0.76;54.98
15880;BME280;61999;51.514;14.614;2023-04-19T06:11:21;100656.41;;;-0.73;55.27
15880;BME280;61999;51.514;14.614;2023-04-19T06:13:52;100654.00;;;-0.44;54.07
15880;BME280;61999;51.514;14.614;2023-04-19T06:16:20;100656.06;;;-0.58;54.71
15880;BME280;61999;51.514;14.614;2023-04-19T06:18:50;100649.44;;;-0.33;54.29
15880;BME280;61999;51.514;14.614;2023-04-19T06:21:17;100647.41;;;-0.57;54.90
15880;BME280;61999;51.514;14.614;2023-04-19T06:23:45;100657.22;;;-0.71;55.48
15880;BME280;61999;51.514;14.614;2023-04-19T06:26:13;100648.84;;;-0.83;55.69
15880;BME280;61999;51.514;14.614;2023-04-19T06:28:42;100654.16;;;-0.50;55.26
15880;BME280;61999;51.514;14.614;2023-04-19T06:31:10;100649.41;;;-1.07;56.59
15880;BME280;61999;51.514;14.614;2023-04-19T06:33:38;100650.81;;;-0.94;56.50
15880;BME280;61999;51.514;14.614;2023-04-19T06:36:07;100645.28;;;-1.17;57.48
15880;BME280;61999;51.514;14.614;2023-04-19T06:38:36;100633.50;;;-1.31;58.25
15880;BME280;61999;51.514;14.614;2023-04-19T06:41:05;100636.97;;;-0.54;56.31
15880;BME280;61999;51.514;14.614;2023-04-19T06:43:34;100656.81;;;-0.17;55.24
15880;BME280;61999;51.514;14.614;2023-04-19T06:46:02;100652.78;;;0.05;54.94
15880;BME280;61999;51.514;14.614;2023-04-19T06:48:32;100647.09;;;0.24;54.06
15880;BME280;61999;51.514;14.614;2023-04-19T06:51:00;100661.66;;;-0.39;55.16
15880;BME280;61999;51.514;14.614;2023-04-19T06:53:30;100657.91;;;-0.63;55.33
15880;BME280;61999;51.514;14.614;2023-04-19T06:55:59;100654.16;;;-0.50;55.97
15880;BME280;61999;51.514;14.614;2023-04-19T06:58:28;100646.53;;;-0.20;54.74
15880;BME280;61999;51.514;14.614;2023-04-19T07:00:58;100647.63;;;-0.31;54.49
15880;BME280;61999;51.514;14.614;2023-04-19T07:03:26;100639.06;;;-1.09;57.80
15880;BME280;61999;51.514;14.614;2023-04-19T07:05:55;100649.97;;;-0.93;57.14
15880;BME280;61999;51.514;14.614;2023-04-19T07:08:26;100647.56;;;-0.65;56.73
15880;BME280;61999;51.514;14.614;2023-04-19T07:11:02;100643.84;;;0.15;55.00
15880;BME280;61999;51.514;14.614;2023-04-19T07:13:31;100634.50;;;-0.59;56.43
15880;BME280;61999;51.514;14.614;2023-04-19T07:16:03;100631.72;;;0.18;55.74
15880;BME280;61999;51.514;14.614;2023-04-19T07:18:31;100641.72;;;-0.36;56.36
15880;BME280;61999;51.514;14.614;2023-04-19T07:20:59;100632.38;;;0.24;54.67
15880;BME280;61999;51.514;14.614;2023-04-19T07:23:27;100632.00;;;0.71;53.76
15880;BME280;61999;51.514;14.614;2023-04-19T07:25:56;100615.16;;;1.14;54.08
15880;BME280;61999;51.514;14.614;2023-04-19T07:28:27;100618.84;;;0.77;54.47
15880;BME280;61999;51.514;14.614;2023-04-19T07:30:55;100626.19;;;0.92;53.71
15880;BME280;61999;51.514;14.614;2023-04-19T07:33:24;100624.41;;;1.22;53.40
15880;BME280;61999;51.514;14.614;2023-04-19T07:35:53;100625.56;;;1.67;51.80
15880;BME280;61999;51.514;14.614;2023-04-19T07:38:23;100616.78;;;1.71;50.90
15880;BME280;61999;51.514;14.614;2023-04-19T07:40:51;100615.84;;;1.99;50.84
15880;BME280;61999;51.514;14.614;2023-04-19T07:43:19;100616.84;;;1.96;50.85
15880;BME280;61999;51.514;14.614;2023-04-19T07:45:48;100616.97;;;1.38;52.27
15880;BME280;61999;51.514;14.614;2023-04-19T07:48:16;100610.81;;;1.14;52.44
15880;BME280;61999;51.514;14.614;2023-04-19T07:50:44;100620.63;;;1.04;53.05
15880;BME280;61999;51.514;14.614;2023-04-19T07:53:12;100623.16;;;1.06;53.80
15880;BME280;61999;51.514;14.614;2023-04-19T07:55:40;100627.97;;;2.00;52.77
15880;BME280;61999;51.514;14.614;2023-04-19T07:58:08;100632.47;;;2.68;51.11
15880;BME280;61999;51.514;14.614;2023-04-19T08:00:36;100623.81;;;2.68;48.42
15880;BME280;61999;51.514;14.614;2023-04-19T08:03:05;100624.88;;;3.07;48.63
15880;BME280;61999;51.514;14.614;2023-04-19T08:05:33;100625.31;;;2.97;48.49
15880;BME280;61999;51.514;14.614;2023-04-19T08:08:01;100610.25;;;3.05;48.04
15880;BME280;61999;51.514;14.614;2023-04-19T08:10:30;100621.69;;;3.23;47.30
15880;BME280;61999;51.514;14.614;2023-04-19T08:12:58;100621.50;;;2.36;49.36
15880;BME280;61999;51.514;14.614;2023-04-19T08:15:30;100618.31;;;2.28;49.16
15880;BME280;61999;51.514;14.614;2023-04-19T08:18:01;100621.28;;;3.12;48.29
15880;BME280;61999;51.514;14.614;2023-04-19T08:20:32;100624.22;;;3.48;47.77
15880;BME280;61999;51.514;14.614;2023-04-19T08:23:02;100631.66;;;2.90;47.28
15880;BME280;61999;51.514;14.614;2023-04-19T08:25:40;100620.59;;;3.50;46.71
15880;BME280;61999;51.514;14.614;2023-04-19T08:28:08;100623.19;;;4.13;45.91
15880;BME280;61999;51.514;14.614;2023-04-19T08:30:39;100623.09;;;4.35;45.98
15880;BME280;61999;51.514;14.614;2023-04-19T08:33:10;100624.84;;;4.55;45.41
15880;BME280;61999;51.514;14.614;2023-04-19T08:35:46;100612.75;;;3.72;46.01
15880;BME280;61999;51.514;14.614;2023-04-19T08:38:16;100610.41;;;3.87;45.81
15880;BME280;61999;51.514;14.614;2023-04-19T08:40:46;100604.16;;;4.11;46.54
15880;BME280;61999;51.514;14.614;2023-04-19T08:43:18;100604.44;;;4.05;47.03
15880;BME280;61999;51.514;14.614;2023-04-19T08:45:47;100602.75;;;3.62;45.70
15880;BME280;61999;51.514;14.614;2023-04-19T08:48:17;100597.31;;;4.28;45.16
15880;BME280;61999;51.514;14.614;2023-04-19T08:50:48;100603.50;;;3.65;45.22
15880;BME280;61999;51.514;14.614;2023-04-19T08:53:28;100604.41;;;3.64;46.45
15880;BME280;61999;51.514;14.614;2023-04-19T08:55:57;100598.81;;;3.73;47.06
15880;BME280;61999;51.514;14.614;2023-04-19T08:58:28;100587.38;;;4.17;46.12
15880;BME280;61999;51.514;14.614;2023-04-19T09:01:07;100593.25;;;4.61;45.10
15880;BME280;61999;51.514;14.614;2023-04-19T09:03:42;100590.97;;;4.92;44.96
15880;BME280;61999;51.514;14.614;2023-04-19T09:06:23;100594.06;;;4.43;44.37
15880;BME280;61999;51.514;14.614;2023-04-19T09:08:52;100592.81;;;3.51;46.36
15880;BME280;61999;51.514;14.614;2023-04-19T09:11:36;100588.00;;;3.83;45.85
15880;BME280;61999;51.514;14.614;2023-04-19T09:14:08;100587.28;;;4.00;46.41
15880;BME280;61999;51.514;14.614;2023-04-19T09:16:37;100580.22;;;4.41;45.84
15880;BME280;61999;51.514;14.614;2023-04-19T09:19:06;100581.06;;;4.41;45.68
15880;BME280;61999;51.514;14.614;2023-04-19T09:21:43;100584.69;;;4.18;46.04
15880;BME280;61999;51.514;14.614;2023-04-19T09:24:11;100579.03;;;4.48;46.03
15880;BME280;61999;51.514;14.614;2023-04-19T09:26:53;100583.53;;;4.26;46.37
15880;BME280;61999;51.514;14.614;2023-04-19T09:29:24;100578.91;;;3.50;48.13
15880;BME280;61999;51.514;14.614;2023-04-19T09:31:57;100568.13;;;3.60;47.33
15880;BME280;61999;51.514;14.614;2023-04-19T09:34:25;100574.56;;;3.71;48.58
15880;BME280;61999;51.514;14.614;2023-04-19T09:37:10;100574.91;;;4.24;47.66
15880;BME280;61999;51.514;14.614;2023-04-19T09:39:43;100569.88;;;4.77;46.39
15880;BME280;61999;51.514;14.614;2023-04-19T09:42:11;100564.00;;;4.53;46.23
15880;BME280;61999;51.514;14.614;2023-04-19T09:44:39;100568.84;;;4.42;45.47
15880;BME280;61999;51.514;14.614;2023-04-19T09:47:27;100564.22;;;5.05;45.07
15880;BME280;61999;51.514;14.614;2023-04-19T09:50:06;100560.91;;;5.19;43.85
15880;BME280;61999;51.514;14.614;2023-04-19T09:52:44;100562.25;;;5.63;44.66
15880;BME280;61999;51.514;14.614;2023-04-19T09:55:14;100565.38;;;5.71;43.85
15880;BME280;61999;51.514;14.614;2023-04-19T09:57:52;100563.34;;;5.76;43.87
15880;BME280;61999;51.514;14.614;2023-04-19T10:00:22;100565.22;;;5.74;43.76
15880;BME280;61999;51.514;14.614;2023-04-19T10:02:51;100571.31;;;5.90;43.55
15880;BME280;61999;51.514;14.614;2023-04-19T10:05:23;100571.16;;;5.93;43.47
15880;BME280;61999;51.514;14.614;2023-04-19T10:07:54;100563.19;;;5.79;42.87
15880;BME280;61999;51.514;14.614;2023-04-19T10:10:28;100560.16;;;5.52;43.82
15880;BME280;61999;51.514;14.614;2023-04-19T10:13:03;100558.41;;;5.70;43.76
15880;BME280;61999;51.514;14.614;2023-04-19T10:15:35;100558.09;;;5.76;43.69
15880;BME280;61999;51.514;14.614;2023-04-19T10:18:08;100555.09;;;5.84;43.99
15880;BME280;61999;51.514;14.614;2023-04-19T10:20:46;100548.47;;;5.76;43.51
15880;BME280;61999;51.514;14.614;2023-04-19T10:23:19;100542.94;;;5.65;43.73
15880;BME280;61999;51.514;14.614;2023-04-19T10:25:48;100552.34;;;5.69;43.90
15880;BME280;61999;51.514;14.614;2023-04-19T10:28:16;100549.41;;;5.58;44.32
15880;BME280;61999;51.514;14.614;2023-04-19T10:30:54;100541.59;;;5.04;44.80
15880;BME280;61999;51.514;14.614;2023-04-19T10:33:25;100538.88;;;4.51;45.30
15880;BME280;61999;51.514;14.614;2023-04-19T10:35:58;100536.75;;;4.40;45.45
15880;BME280;61999;51.514;14.614;2023-04-19T10:38:38;100537.88;;;4.91;44.58
15880;BME280;61999;51.514;14.614;2023-04-19T10:41:07;100535.84;;;5.15;44.81
15880;BME280;61999;51.514;14.614;2023-04-19T10:43:45;100529.00;;;5.65;44.25
15880;BME280;61999;51.514;14.614;2023-04-19T10:46:16;100527.00;;;6.20;43.53
15880;BME280;61999;51.514;14.614;2023-04-19T10:49:04;100527.53;;;5.94;42.73
15880;BME280;61999;51.514;14.614;2023-04-19T10:51:36;100526.88;;;5.73;43.30
15880;BME280;61999;51.514;14.614;2023-04-19T10:54:07;100520.69;;;5.57;43.44
15880;BME280;61999;51.514;14.614;2023-04-19T10:57:09;100518.25;;;5.36;42.79
15880;BME280;61999;51.514;14.614;2023-04-19T10:59:38;100514.53;;;4.88;44.03
15880;BME280;61999;51.514;14.614;2023-04-19T11:02:26;100520.84;;;5.01;43.90
15880;BME280;61999;51.514;14.614;2023-04-19T11:05:00;100518.97;;;5.22;44.76
15880;BME280;61999;51.514;14.614;2023-04-19T11:07:37;100518.53;;;4.95;45.24
15880;BME280;61999;51.514;14.614;2023-04-19T11:10:09;100510.84;;;5.09;45.14
15880;BME280;61999;51.514;14.614;2023-04-19T11:12:42;100515.50;;;5.74;45.42
15880;BME280;61999;51.514;14.614;2023-04-19T11:15:10;100506.06;;;6.20;44.37
15880;BME280;61999;51.514;14.614;2023-04-19T11:17:39;100504.38;;;6.67;43.82
15880;BME280;61999;51.514;14.614;2023-04-19T11:20:10;100495.88;;;7.54;43.20
15880;BME280;61999;51.514;14.614;2023-04-19T11:22:41;100483.88;;;7.94;39.49
15880;BME280;61999;51.514;14.614;2023-04-19T11:25:13;100478.50;;;8.93;41.64
15880;BME280;61999;51.514;14.614;2023-04-19T11:27:44;100481.00;;;10.11;38.13
15880;BME280;61999;51.514;14.614;2023-04-19T11:30:14;100467.09;;;10.94;36.03
15880;BME280;61999;51.514;14.614;2023-04-19T11:32:46;100467.19;;;10.20;33.88
15880;BME280;61999;51.514;14.614;2023-04-19T11:35:18;100464.41;;;10.83;34.65
15880;BME280;61999;51.514;14.614;2023-04-19T11:37:47;100448.59;;;11.18;32.55
15880;BME280;61999;51.514;14.614;2023-04-19T11:40:19;100452.88;;;11.43;33.11
15880;BME280;61999;51.514;14.614;2023-04-19T11:42:54;100447.44;;;11.33;30.34
15880;BME280;61999;51.514;14.614;2023-04-19T11:45:27;100438.63;;;11.79;32.18
15880;BME280;61999;51.514;14.614;2023-04-19T11:47:58;100439.19;;;11.03;31.13
15880;BME280;61999;51.514;14.614;2023-04-19T11:50:37;100433.91;;;11.03;32.70
15880;BME280;61999;51.514;14.614;2023-04-19T11:53:12;100443.78;;;11.01;32.68
15880;BME280;61999;51.514;14.614;2023-04-19T11:56:02;100450.91;;;9.77;33.71
15880;BME280;61999;51.514;14.614;2023-04-19T11:58:38;100440.06;;;9.43;34.75
15880;BME280;61999;51.514;14.614;2023-04-19T12:01:11;100450.69;;;8.76;35.53
15880;BME280;61999;51.514;14.614;2023-04-19T12:03:44;100457.50;;;8.10;36.10
15880;BME280;61999;51.514;14.614;2023-04-19T12:06:15;100463.81;;;6.74;39.72
15880;BME280;61999;51.514;14.614;2023-04-19T12:08:46;100471.09;;;6.21;43.21
15880;BME280;61999;51.514;14.614;2023-04-19T12:11:18;100463.06;;;7.02;42.05
15880;BME280;61999;51.514;14.614;2023-04-19T12:13:47;100472.75;;;6.70;42.20
15880;BME280;61999;51.514;14.614;2023-04-19T12:16:26;100479.03;;;6.20;43.11
15880;BME280;61999;51.514;14.614;2023-04-19T12:18:54;100487.13;;;6.15;43.89
15880;BME280;61999;51.514;14.614;2023-04-19T12:21:27;100482.81;;;6.30;43.80
15880;BME280;61999;51.514;14.614;2023-04-19T12:23:58;100481.06;;;6.47;43.42
15880;BME280;61999;51.514;14.614;2023-04-19T12:26:29;100483.78;;;6.29;44.21
15880;BME280;61999;51.514;14.614;2023-04-19T12:28:59;100490.34;;;6.52;43.56
15880;BME280;61999;51.514;14.614;2023-04-19T12:31:27;100477.66;;;6.13;45.22
15880;BME280;61999;51.514;14.614;2023-04-19T12:33:57;100470.25;;;5.54;47.85
15880;BME280;61999;51.514;14.614;2023-04-19T12:36:25;100474.72;;;5.70;48.34
15880;BME280;61999;51.514;14.614;2023-04-19T12:38:54;100473.38;;;6.12;46.19
15880;BME280;61999;51.514;14.614;2023-04-19T12:41:22;100473.78;;;6.36;45.69
15880;BME280;61999;51.514;14.614;2023-04-19T12:43:51;100471.19;;;6.20;47.03
15880;BME280;61999;51.514;14.614;2023-04-19T12:46:19;100471.09;;;6.37;46.36
15880;BME280;61999;51.514;14.614;2023-04-19T12:48:47;100474.72;;;6.35;46.56
15880;BME280;61999;51.514;14.614;2023-04-19T12:51:16;100466.69;;;6.54;46.44
15880;BME280;61999;51.514;14.614;2023-04-19T12:53:47;100460.13;;;6.47;46.59
15880;BME280;61999;51.514;14.614;2023-04-19T12:56:16;100455.28;;;6.55;46.91
15880;BME280;61999;51.514;14.614;2023-04-19T12:58:44;100464.59;;;6.44;46.43
15880;BME280;61999;51.514;14.614;2023-04-19T13:01:14;100462.56;;;6.50;46.33